sensor_id;sensor_type;location;lat;lon;timestamp;pressure;altitude;pressure_sealevel;temperature;humidity
76337;BME280;65157;50.082;18.178;2023-08-08T00:01:24;98968.58;;;13.59;82.20
76337;BME280;65157;50.082;18.178;2023-08-08T00:03:50;98972.13;;;13.59;82.30
76337;BME280;65157;50.082;18.178;2023-08-08T00:06:16;98972.77;;;13.57;82.28
76337;BME280;65157;50.082;18.178;2023-08-08T00:08:42;98974.52;;;13.54;82.46
76337;BME280;65157;50.082;18.178;2023-08-08T00:11:08;98982.46;;;13.52;82.39
76337;BME280;65157;50.082;18.178;2023-08-08T00:13:34;98980.84;;;13.47;82.49
76337;BME280;65157;50.082;18.178;2023-08-08T00:16:00;98978.85;;;13.44;82.58
76337;BME280;65157;50.082;18.178;2023-08-08T00:18:25;98973.45;;;13.43;82.71
76337;BME280;65157;50.082;18.178;2023-08-08T00:20:51;98968.92;;;13.44;82.71
76337;BME280;65157;50.082;18.178;2023-08-08T00:23:17;98972.88;;;13.43;82.52
76337;BME280;65157;50.082;18.178;2023-08-08T00:25:43;98978.24;;;13.46;82.53
76337;BME280;65157;50.082;18.178;2023-08-08T00:28:09;98984.15;;;13.48;82.46
76337;BME280;65157;50.082;18.178;2023-08-08T00:30:35;98980.59;;;13.48;82.33
76337;BME280;65157;50.082;18.178;2023-08-08T00:33:01;98980.95;;;13.48;82.44
76337;BME280;65157;50.082;18.178;2023-08-08T00:35:27;98979.29;;;13.46;82.21
76337;BME280;65157;50.082;18.178;2023-08-08T00:37:53;98978.77;;;13.45;82.26
76337;BME280;65157;50.082;18.178;2023-08-08T00:40:19;98978.88;;;13.44;82.28
76337;BME280;65157;50.082;18.178;2023-08-08T00:42:45;98987.02;;;13.41;82.01
76337;BME280;65157;50.082;18.178;2023-08-08T00:45:11;98988.61;;;13.38;81.82
76337;BME280;65157;50.082;18.178;2023-08-08T00:47:38;98988.29;;;13.34;81.58
76337;BME280;65157;50.082;18.178;2023-08-08T00:50:04;98990.21;;;13.29;81.40
76337;BME280;65157;50.082;18.178;2023-08-08T00:52:31;98993.80;;;13.25;81.39
76337;BME280;65157;50.082;18.178;2023-08-08T00:54:57;98997.16;;;13.19;80.90
76337;BME280;65157;50.082;18.178;2023-08-08T00:57:24;98994.78;;;13.14;81.05
76337;BME280;65157;50.082;18.178;2023-08-08T00:59:51;98994.31;;;13.10;81.02
76337;BME280;65157;50.082;18.178;2023-08-08T01:02:17;98994.98;;;13.08;80.95
76337;BME280;65157;50.082;18.178;2023-08-08T01:04:43;98991.25;;;13.04;80.79
76337;BME280;65157;50.082;18.178;2023-08-08T01:07:30;98993.98;;;12.99;80.85
76337;BME280;65157;50.082;18.178;2023-08-08T01:10:26;98999.98;;;12.96;80.78
76337;BME280;65157;50.082;18.178;2023-08-08T01:12:59;99000.38;;;12.90;80.53
76337;BME280;65157;50.082;18.178;2023-08-08T01:15:26;99000.23;;;12.86;80.96
76337;BME280;65157;50.082;18.178;2023-08-08T01:17:54;98999.75;;;12.85;80.98
76337;BME280;65157;50.082;18.178;2023-08-08T01:20:21;98999.20;;;12.82;81.09
76337;BME280;65157;50.082;18.178;2023-08-08T01:22:58;98998.42;;;12.81;80.96
76337;BME280;65157;50.082;18.178;2023-08-08T01:25:29;98999.52;;;12.77;81.10
76337;BME280;65157;50.082;18.178;2023-08-08T01:27:56;99000.46;;;12.72;81.08
76337;BME280;65157;50.082;18.178;2023-08-08T01:30:22;98998.33;;;12.70;81.25
76337;BME280;65157;50.082;18.178;2023-08-08T01:32:48;99003.45;;;12.70;81.29
76337;BME280;65157;50.082;18.178;2023-08-08T01:35:14;99004.59;;;12.68;81.20
76337;BME280;65157;50.082;18.178;2023-08-08T01:37:44;99003.73;;;12.65;81.18
76337;BME280;65157;50.082;18.178;2023-08-08T01:40:16;99006.47;;;12.63;81.38
76337;BME280;65157;50.082;18.178;2023-08-08T01:42:45;99008.70;;;12.61;81.30
76337;BME280;65157;50.082;18.178;2023-08-08T01:45:12;99009.88;;;12.59;81.63
76337;BME280;65157;50.082;18.178;2023-08-08T01:47:38;99009.39;;;12.58;81.35
76337;BME280;65157;50.082;18.178;2023-08-08T01:50:05;99013.12;;;12.58;81.39
76337;BME280;65157;50.082;18.178;2023-08-08T01:52:32;99011.23;;;12.57;81.38
76337;BME280;65157;50.082;18.178;2023-08-08T01:54:58;99017.30;;;12.56;81.39
76337;BME280;65157;50.082;18.178;2023-08-08T01:57:24;99013.55;;;12.53;81.29
76337;BME280;65157;50.082;18.178;2023-08-08T01:59:50;99019.41;;;12.50;81.23
76337;BME280;65157;50.082;18.178;2023-08-08T02:02:16;99019.03;;;12.47;81.29
76337;BME280;65157;50.082;18.178;2023-08-08T02:04:41;99016.95;;;12.46;81.17
76337;BME280;65157;50.082;18.178;2023-08-08T02:07:07;99008.73;;;12.41;81.12
76337;BME280;65157;50.082;18.178;2023-08-08T02:09:33;99010.23;;;12.39;81.23
76337;BME280;65157;50.082;18.178;2023-08-08T02:11:59;99009.59;;;12.38;81.25
76337;BME280;65157;50.082;18.178;2023-08-08T02:14:25;99005.99;;;12.36;81.39
76337;BME280;65157;50.082;18.178;2023-08-08T02:16:51;99010.66;;;12.34;81.40
76337;BME280;65157;50.082;18.178;2023-08-08T02:19:17;99018.84;;;12.33;81.73
76337;BME280;65157;50.082;18.178;2023-08-08T02:21:42;99024.66;;;12.34;81.51
76337;BME280;65157;50.082;18.178;2023-08-08T02:24:08;99018.45;;;12.34;81.61
76337;BME280;65157;50.082;18.178;2023-08-08T02:26:34;99017.77;;;12.34;81.59
76337;BME280;65157;50.082;18.178;2023-08-08T02:29:00;99017.83;;;12.33;81.77
76337;BME280;65157;50.082;18.178;2023-08-08T02:31:26;99020.86;;;12.33;81.84
76337;BME280;65157;50.082;18.178;2023-08-08T02:33:52;99020.33;;;12.32;81.86
76337;BME280;65157;50.082;18.178;2023-08-08T02:36:18;99015.75;;;12.32;81.69
76337;BME280;65157;50.082;18.178;2023-08-08T02:38:44;99011.07;;;12.33;81.85
76337;BME280;65157;50.082;18.178;2023-08-08T02:41:10;99012.70;;;12.33;81.77
76337;BME280;65157;50.082;18.178;2023-08-08T02:43:36;99023.60;;;12.34;81.88
76337;BME280;65157;50.082;18.178;2023-08-08T02:46:03;99025.27;;;12.36;82.08
76337;BME280;65157;50.082;18.178;2023-08-08T02:48:30;99024.23;;;12.36;81.94
76337;BME280;65157;50.082;18.178;2023-08-08T02:50:55;99023.48;;;12.36;81.94
76337;BME280;65157;50.082;18.178;2023-08-08T02:53:21;99025.91;;;12.37;81.92
76337;BME280;65157;50.082;18.178;2023-08-08T02:55:47;99029.42;;;12.38;81.89
76337;BME280;65157;50.082;18.178;2023-08-08T02:58:13;99030.94;;;12.39;81.86
76337;BME280;65157;50.082;18.178;2023-08-08T03:00:39;99034.33;;;12.39;81.68
76337;BME280;65157;50.082;18.178;2023-08-08T03:03:05;99036.64;;;12.42;81.82
76337;BME280;65157;50.082;18.178;2023-08-08T03:05:31;99039.39;;;12.44;81.69
76337;BME280;65157;50.082;18.178;2023-08-08T03:07:57;99040.58;;;12.44;81.72
76337;BME280;65157;50.082;18.178;2023-08-08T03:10:22;99040.19;;;12.45;81.54
76337;BME280;65157;50.082;18.178;2023-08-08T03:12:48;99041.42;;;12.45;81.44
76337;BME280;65157;50.082;18.178;2023-08-08T03:15:14;99045.81;;;12.46;81.57
76337;BME280;65157;50.082;18.178;2023-08-08T03:17:40;99047.20;;;12.46;81.54
76337;BME280;65157;50.082;18.178;2023-08-08T03:20:07;99045.59;;;12.47;81.66
76337;BME280;65157;50.082;18.178;2023-08-08T03:22:33;99041.81;;;12.48;81.69
76337;BME280;65157;50.082;18.178;2023-08-08T03:24:59;99044.15;;;12.51;81.52
76337;BME280;65157;50.082;18.178;2023-08-08T03:27:25;99045.14;;;12.52;81.62
76337;BME280;65157;50.082;18.178;2023-08-08T03:29:51;99048.05;;;12.51;81.03
76337;BME280;65157;50.082;18.178;2023-08-08T03:32:17;99049.02;;;12.49;81.24
76337;BME280;65157;50.082;18.178;2023-08-08T03:34:43;99046.95;;;12.48;81.30
76337;BME280;65157;50.082;18.178;2023-08-08T03:37:09;99046.58;;;12.48;81.19
76337;BME280;65157;50.082;18.178;2023-08-08T03:39:34;99052.05;;;12.48;80.93
76337;BME280;65157;50.082;18.178;2023-08-08T03:42:00;99051.62;;;12.47;80.74
76337;BME280;65157;50.082;18.178;2023-08-08T03:44:26;99057.77;;;12.43;80.52
76337;BME280;65157;50.082;18.178;2023-08-08T03:46:52;99059.50;;;12.41;80.72
76337;BME280;65157;50.082;18.178;2023-08-08T03:49:18;99067.52;;;12.40;80.83
76337;BME280;65157;50.082;18.178;2023-08-08T03:51:44;99069.42;;;12.38;80.45
76337;BME280;65157;50.082;18.178;2023-08-08T03:54:10;99071.86;;;12.35;80.62
76337;BME280;65157;50.082;18.178;2023-08-08T03:56:36;99072.63;;;12.34;80.53
76337;BME280;65157;50.082;18.178;2023-08-08T03:59:02;99073.39;;;12.33;80.32
76337;BME280;65157;50.082;18.178;2023-08-08T04:01:29;99075.74;;;12.32;80.39
76337;BME280;65157;50.082;18.178;2023-08-08T04:03:55;99080.23;;;12.31;80.20
76337;BME280;65157;50.082;18.178;2023-08-08T04:06:21;99085.06;;;12.30;80.32
76337;BME280;65157;50.082;18.178;2023-08-08T04:08:46;99087.81;;;12.28;80.37
76337;BME280;65157;50.082;18.178;2023-08-08T04:11:12;99095.27;;;12.28;80.35
76337;BME280;65157;50.082;18.178;2023-08-08T04:13:38;99103.30;;;12.26;80.29
76337;BME280;65157;50.082;18.178;2023-08-08T04:16:04;99102.29;;;12.25;80.36
76337;BME280;65157;50.082;18.178;2023-08-08T04:18:30;99102.86;;;12.25;80.29
76337;BME280;65157;50.082;18.178;2023-08-08T04:20:56;99108.33;;;12.25;80.44
76337;BME280;65157;50.082;18.178;2023-08-08T04:23:22;99115.14;;;12.27;80.57
76337;BME280;65157;50.082;18.178;2023-08-08T04:25:48;99120.47;;;12.30;80.59
76337;BME280;65157;50.082;18.178;2023-08-08T04:28:13;99122.40;;;12.33;80.53
76337;BME280;65157;50.082;18.178;2023-08-08T04:30:39;99128.31;;;12.36;80.34
76337;BME280;65157;50.082;18.178;2023-08-08T04:33:05;99130.52;;;12.37;80.45
76337;BME280;65157;50.082;18.178;2023-08-08T04:35:31;99131.80;;;12.40;80.51
76337;BME280;65157;50.082;18.178;2023-08-08T04:37:57;99134.52;;;12.42;80.44
76337;BME280;65157;50.082;18.178;2023-08-08T04:40:23;99134.36;;;12.45;80.72
76337;BME280;65157;50.082;18.178;2023-08-08T04:42:49;99136.66;;;12.49;80.72
76337;BME280;65157;50.082;18.178;2023-08-08T04:45:15;99134.09;;;12.50;80.47
76337;BME280;65157;50.082;18.178;2023-08-08T04:47:43;99136.91;;;12.54;80.27
76337;BME280;65157;50.082;18.178;2023-08-08T04:50:10;99138.34;;;12.57;80.54
76337;BME280;65157;50.082;18.178;2023-08-08T04:52:36;99134.64;;;12.60;80.52
76337;BME280;65157;50.082;18.178;2023-08-08T04:55:02;99132.82;;;12.61;80.25
76337;BME280;65157;50.082;18.178;2023-08-08T04:57:28;99132.16;;;12.63;80.35
76337;BME280;65157;50.082;18.178;2023-08-08T04:59:55;99130.95;;;12.63;80.18
76337;BME280;65157;50.082;18.178;2023-08-08T05:02:22;99128.20;;;12.65;80.07
76337;BME280;65157;50.082;18.178;2023-08-08T05:04:48;99133.55;;;12.64;80.08
76337;BME280;65157;50.082;18.178;2023-08-08T05:07:14;99134.94;;;12.65;80.29
76337;BME280;65157;50.082;18.178;2023-08-08T05:09:40;99138.48;;;12.68;80.38
76337;BME280;65157;50.082;18.178;2023-08-08T05:12:06;99142.50;;;12.72;80.19
76337;BME280;65157;50.082;18.178;2023-08-08T05:14:32;99138.35;;;12.77;80.28
76337;BME280;65157;50.082;18.178;2023-08-08T05:17:04;99142.81;;;12.86;80.11
76337;BME280;65157;50.082;18.178;2023-08-08T05:19:31;99140.71;;;12.95;80.13
76337;BME280;65157;50.082;18.178;2023-08-08T05:21:57;99136.29;;;13.05;79.97
76337;BME280;65157;50.082;18.178;2023-08-08T05:24:23;99141.42;;;13.19;79.46
76337;BME280;65157;50.082;18.178;2023-08-08T05:26:49;99145.56;;;13.31;79.34
76337;BME280;65157;50.082;18.178;2023-08-08T05:29:16;99142.91;;;13.43;79.09
76337;BME280;65157;50.082;18.178;2023-08-08T05:31:42;99147.01;;;13.56;78.80
76337;BME280;65157;50.082;18.178;2023-08-08T05:34:07;99141.85;;;13.69;78.77
76337;BME280;65157;50.082;18.178;2023-08-08T05:36:33;99148.08;;;13.84;77.85
76337;BME280;65157;50.082;18.178;2023-08-08T05:38:59;99147.42;;;13.95;77.17
76337;BME280;65157;50.082;18.178;2023-08-08T05:41:25;99149.46;;;14.11;76.97
76337;BME280;65157;50.082;18.178;2023-08-08T05:43:52;99150.55;;;14.27;76.46
76337;BME280;65157;50.082;18.178;2023-08-08T05:46:18;99152.80;;;14.40;75.36
76337;BME280;65157;50.082;18.178;2023-08-08T05:48:44;99153.02;;;14.51;74.95
76337;BME280;65157;50.082;18.178;2023-08-08T05:51:10;99148.80;;;14.62;74.08
76337;BME280;65157;50.082;18.178;2023-08-08T05:53:36;99150.49;;;14.75;74.59
76337;BME280;65157;50.082;18.178;2023-08-08T05:56:02;99145.59;;;14.88;73.98
76337;BME280;65157;50.082;18.178;2023-08-08T05:58:28;99146.87;;;15.02;73.01
76337;BME280;65157;50.082;18.178;2023-08-08T06:00:53;99146.55;;;15.13;71.98
76337;BME280;65157;50.082;18.178;2023-08-08T06:03:19;99146.78;;;15.23;71.33
76337;BME280;65157;50.082;18.178;2023-08-08T06:05:45;99142.73;;;15.34;72.17
76337;BME280;65157;50.082;18.178;2023-08-08T06:08:11;99139.27;;;15.52;72.83
76337;BME280;65157;50.082;18.178;2023-08-08T06:10:37;99140.10;;;15.69;72.14
76337;BME280;65157;50.082;18.178;2023-08-08T06:13:03;99136.55;;;15.83;71.92
76337;BME280;65157;50.082;18.178;2023-08-08T06:15:29;99142.02;;;16.03;72.11
76337;BME280;65157;50.082;18.178;2023-08-08T06:17:58;99138.48;;;16.21;70.84
76337;BME280;65157;50.082;18.178;2023-08-08T06:20:23;99145.34;;;16.35;69.99
76337;BME280;65157;50.082;18.178;2023-08-08T06:22:49;99140.52;;;16.49;69.04
76337;BME280;65157;50.082;18.178;2023-08-08T06:25:15;99142.71;;;16.64;69.78
76337;BME280;65157;50.082;18.178;2023-08-08T06:27:44;99140.84;;;16.83;69.34
76337;BME280;65157;50.082;18.178;2023-08-08T06:30:10;99145.69;;;16.98;68.21
76337;BME280;65157;50.082;18.178;2023-08-08T06:32:36;99140.18;;;17.05;66.88
76337;BME280;65157;50.082;18.178;2023-08-08T06:35:04;99144.67;;;17.14;67.68
76337;BME280;65157;50.082;18.178;2023-08-08T06:37:32;99137.45;;;17.21;66.30
76337;BME280;65157;50.082;18.178;2023-08-08T06:39:57;99142.34;;;17.32;66.41
76337;BME280;65157;50.082;18.178;2023-08-08T06:42:23;99141.79;;;17.45;66.14
76337;BME280;65157;50.082;18.178;2023-08-08T06:44:49;99142.48;;;17.53;65.05
76337;BME280;65157;50.082;18.178;2023-08-08T06:47:15;99143.49;;;17.61;65.01
76337;BME280;65157;50.082;18.178;2023-08-08T06:49:41;99145.41;;;17.69;64.25
76337;BME280;65157;50.082;18.178;2023-08-08T06:52:08;99139.58;;;17.73;63.00
76337;BME280;65157;50.082;18.178;2023-08-08T06:54:36;99141.67;;;17.76;63.37
76337;BME280;65157;50.082;18.178;2023-08-08T06:57:02;99139.14;;;17.81;63.35
76337;BME280;65157;50.082;18.178;2023-08-08T06:59:28;99141.77;;;17.96;64.14
76337;BME280;65157;50.082;18.178;2023-08-08T07:01:54;99141.70;;;18.09;62.56
76337;BME280;65157;50.082;18.178;2023-08-08T07:04:20;99141.31;;;18.15;63.04
76337;BME280;65157;50.082;18.178;2023-08-08T07:06:46;99141.23;;;18.23;62.34
76337;BME280;65157;50.082;18.178;2023-08-08T07:09:12;99137.32;;;18.27;61.73
76337;BME280;65157;50.082;18.178;2023-08-08T07:11:38;99135.98;;;18.40;62.10
76337;BME280;65157;50.082;18.178;2023-08-08T07:14:04;99137.94;;;18.54;61.11
76337;BME280;65157;50.082;18.178;2023-08-08T07:16:30;99133.59;;;18.62;60.31
76337;BME280;65157;50.082;18.178;2023-08-08T07:18:56;99126.40;;;18.74;60.18
76337;BME280;65157;50.082;18.178;2023-08-08T07:21:22;99123.39;;;18.87;59.93
76337;BME280;65157;50.082;18.178;2023-08-08T07:23:48;99122.73;;;18.96;58.60
76337;BME280;65157;50.082;18.178;2023-08-08T07:26:16;99120.16;;;18.96;57.83
76337;BME280;65157;50.082;18.178;2023-08-08T07:28:41;99116.06;;;19.01;56.69
76337;BME280;65157;50.082;18.178;2023-08-08T07:31:07;99112.52;;;19.07;59.15
76337;BME280;65157;50.082;18.178;2023-08-08T07:33:33;99111.59;;;19.25;58.24
76337;BME280;65157;50.082;18.178;2023-08-08T07:36:01;99114.54;;;19.36;56.48
76337;BME280;65157;50.082;18.178;2023-08-08T07:38:27;99111.35;;;19.42;56.14
76337;BME280;65157;50.082;18.178;2023-08-08T07:40:53;99114.73;;;19.51;56.52
76337;BME280;65157;50.082;18.178;2023-08-08T07:43:20;99119.68;;;19.56;56.48
76337;BME280;65157;50.082;18.178;2023-08-08T07:45:46;99122.33;;;19.61;56.26
76337;BME280;65157;50.082;18.178;2023-08-08T07:48:12;99124.73;;;19.64;55.64
76337;BME280;65157;50.082;18.178;2023-08-08T07:50:38;99116.69;;;19.64;55.65
76337;BME280;65157;50.082;18.178;2023-08-08T07:53:04;99114.70;;;19.71;55.22
76337;BME280;65157;50.082;18.178;2023-08-08T07:55:30;99116.32;;;19.73;54.65
76337;BME280;65157;50.082;18.178;2023-08-08T07:57:56;99117.69;;;19.80;55.38
76337;BME280;65157;50.082;18.178;2023-08-08T08:00:22;99115.30;;;19.90;54.52
76337;BME280;65157;50.082;18.178;2023-08-08T08:02:49;99117.50;;;20.00;55.55
76337;BME280;65157;50.082;18.178;2023-08-08T08:05:15;99118.21;;;20.06;54.68
76337;BME280;65157;50.082;18.178;2023-08-08T08:07:40;99119.70;;;20.10;53.07
76337;BME280;65157;50.082;18.178;2023-08-08T08:10:10;99118.35;;;20.09;54.01
76337;BME280;65157;50.082;18.178;2023-08-08T08:12:36;99117.26;;;20.18;54.30
76337;BME280;65157;50.082;18.178;2023-08-08T08:15:06;99119.75;;;20.33;53.62
76337;BME280;65157;50.082;18.178;2023-08-08T08:17:32;99114.02;;;20.33;51.56
76337;BME280;65157;50.082;18.178;2023-08-08T08:19:58;99120.86;;;20.33;51.41
76337;BME280;65157;50.082;18.178;2023-08-08T08:22:24;99119.08;;;20.37;52.15
76337;BME280;65157;50.082;18.178;2023-08-08T08:24:51;99119.58;;;20.42;51.10
76337;BME280;65157;50.082;18.178;2023-08-08T08:27:18;99119.47;;;20.47;50.79
76337;BME280;65157;50.082;18.178;2023-08-08T08:29:45;99119.02;;;20.58;52.16
76337;BME280;65157;50.082;18.178;2023-08-08T08:32:11;99116.69;;;20.63;51.65
76337;BME280;65157;50.082;18.178;2023-08-08T08:34:37;99115.44;;;20.63;51.65
76337;BME280;65157;50.082;18.178;2023-08-08T08:37:03;99115.42;;;20.58;52.62
76337;BME280;65157;50.082;18.178;2023-08-08T08:39:30;99111.16;;;20.60;51.86
76337;BME280;65157;50.082;18.178;2023-08-08T08:42:00;99108.30;;;20.50;51.11
76337;BME280;65157;50.082;18.178;2023-08-08T08:44:30;99110.42;;;20.38;52.43
76337;BME280;65157;50.082;18.178;2023-08-08T08:47:01;99112.20;;;20.38;52.05
76337;BME280;65157;50.082;18.178;2023-08-08T08:49:31;99107.30;;;20.36;50.52
76337;BME280;65157;50.082;18.178;2023-08-08T08:51:59;99109.36;;;20.26;51.35
76337;BME280;65157;50.082;18.178;2023-08-08T08:54:28;99116.46;;;20.19;49.87
76337;BME280;65157;50.082;18.178;2023-08-08T08:56:56;99107.90;;;20.05;51.57
76337;BME280;65157;50.082;18.178;2023-08-08T08:59:23;99109.36;;;20.11;51.59
76337;BME280;65157;50.082;18.178;2023-08-08T09:01:50;99110.14;;;20.26;53.22
76337;BME280;65157;50.082;18.178;2023-08-08T09:04:18;99115.56;;;20.38;50.58
76337;BME280;65157;50.082;18.178;2023-08-08T09:06:46;99118.18;;;20.37;51.16
76337;BME280;65157;50.082;18.178;2023-08-08T09:09:13;99115.33;;;20.39;50.88
76337;BME280;65157;50.082;18.178;2023-08-08T09:11:39;99113.50;;;20.58;52.54
76337;BME280;65157;50.082;18.178;2023-08-08T09:14:18;99117.04;;;20.73;48.78
76337;BME280;65157;50.082;18.178;2023-08-08T09:16:46;99107.12;;;20.61;48.79
76337;BME280;65157;50.082;18.178;2023-08-08T09:19:13;99114.78;;;20.60;49.87
76337;BME280;65157;50.082;18.178;2023-08-08T09:21:41;99118.41;;;20.63;48.30
76337;BME280;65157;50.082;18.178;2023-08-08T09:24:07;99119.68;;;20.49;49.03
76337;BME280;65157;50.082;18.178;2023-08-08T09:26:34;99127.23;;;20.34;49.78
76337;BME280;65157;50.082;18.178;2023-08-08T09:29:02;99126.14;;;20.20;48.84
76337;BME280;65157;50.082;18.178;2023-08-08T09:31:30;99122.30;;;20.20;50.20
76337;BME280;65157;50.082;18.178;2023-08-08T09:33:58;99126.90;;;20.31;50.09
76337;BME280;65157;50.082;18.178;2023-08-08T09:36:24;99136.44;;;20.45;49.75
76337;BME280;65157;50.082;18.178;2023-08-08T09:38:50;99131.75;;;20.52;48.73
76337;BME280;65157;50.082;18.178;2023-08-08T09:41:17;99125.95;;;20.59;49.34
76337;BME280;65157;50.082;18.178;2023-08-08T09:43:45;99126.70;;;20.79;49.16
76337;BME280;65157;50.082;18.178;2023-08-08T09:46:11;99127.87;;;20.97;48.67
76337;BME280;65157;50.082;18.178;2023-08-08T09:48:39;99128.32;;;20.92;46.69
76337;BME280;65157;50.082;18.178;2023-08-08T09:51:06;99128.95;;;20.66;45.69
76337;BME280;65157;50.082;18.178;2023-08-08T09:53:32;99129.65;;;20.49;46.28
76337;BME280;65157;50.082;18.178;2023-08-08T09:56:00;99122.77;;;20.54;48.77
76337;BME280;65157;50.082;18.178;2023-08-08T09:58:28;99122.79;;;20.58;47.66
76337;BME280;65157;50.082;18.178;2023-08-08T10:00:54;99118.95;;;20.72;48.65
76337;BME280;65157;50.082;18.178;2023-08-08T10:03:20;99112.78;;;20.89;48.89
76337;BME280;65157;50.082;18.178;2023-08-08T10:05:47;99110.86;;;21.07;48.89
76337;BME280;65157;50.082;18.178;2023-08-08T10:08:16;99109.01;;;21.36;50.29
76337;BME280;65157;50.082;18.178;2023-08-08T10:10:45;99103.31;;;21.69;48.18
76337;BME280;65157;50.082;18.178;2023-08-08T10:13:19;99104.58;;;21.73;46.72
76337;BME280;65157;50.082;18.178;2023-08-08T10:15:45;99106.67;;;21.62;45.72
76337;BME280;65157;50.082;18.178;2023-08-08T10:18:12;99110.73;;;21.53;46.04
76337;BME280;65157;50.082;18.178;2023-08-08T10:20:43;99104.43;;;21.49;45.74
76337;BME280;65157;50.082;18.178;2023-08-08T10:23:09;99105.13;;;21.53;45.15
76337;BME280;65157;50.082;18.178;2023-08-08T10:25:36;99102.59;;;21.44;45.75
76337;BME280;65157;50.082;18.178;2023-08-08T10:30:44;99109.13;;;21.19;46.45
76337;BME280;65157;50.082;18.178;2023-08-08T10:33:26;99109.87;;;21.10;46.88
76337;BME280;65157;50.082;18.178;2023-08-08T10:36:06;99119.04;;;21.06;46.29
76337;BME280;65157;50.082;18.178;2023-08-08T10:38:46;99122.20;;;20.98;46.74
76337;BME280;65157;50.082;18.178;2023-08-08T10:41:19;99122.65;;;20.91;46.29
76337;BME280;65157;50.082;18.178;2023-08-08T10:43:56;99124.52;;;20.80;46.23
76337;BME280;65157;50.082;18.178;2023-08-08T10:46:27;99122.67;;;20.70;47.38
76337;BME280;65157;50.082;18.178;2023-08-08T10:49:01;99124.16;;;20.59;47.00
76337;BME280;65157;50.082;18.178;2023-08-08T10:51:42;99123.25;;;20.55;48.22
76337;BME280;65157;50.082;18.178;2023-08-08T10:54:14;99126.30;;;20.49;47.83
76337;BME280;65157;50.082;18.178;2023-08-08T10:56:54;99124.56;;;20.36;47.69
76337;BME280;65157;50.082;18.178;2023-08-08T10:59:23;99131.58;;;20.11;46.79
76337;BME280;65157;50.082;18.178;2023-08-08T11:01:51;99133.83;;;19.71;47.03
76337;BME280;65157;50.082;18.178;2023-08-08T11:04:26;99136.70;;;19.43;48.64
76337;BME280;65157;50.082;18.178;2023-08-08T11:06:53;99134.11;;;19.30;49.19
76337;BME280;65157;50.082;18.178;2023-08-08T11:09:19;99134.21;;;19.29;50.74
76337;BME280;65157;50.082;18.178;2023-08-08T11:11:46;99133.89;;;19.33;50.32
76337;BME280;65157;50.082;18.178;2023-08-08T11:14:15;99121.73;;;19.24;49.30
76337;BME280;65157;50.082;18.178;2023-08-08T11:16:43;99118.06;;;19.16;50.45
76337;BME280;65157;50.082;18.178;2023-08-08T11:19:10;99123.11;;;19.15;50.22
76337;BME280;65157;50.082;18.178;2023-08-08T11:21:41;99124.05;;;19.19;50.64
76337;BME280;65157;50.082;18.178;2023-08-08T11:24:08;99126.10;;;19.27;50.90
76337;BME280;65157;50.082;18.178;2023-08-08T11:26:35;99120.23;;;19.34;51.19
76337;BME280;65157;50.082;18.178;2023-08-08T11:29:04;99123.25;;;19.41;51.86
76337;BME280;65157;50.082;18.178;2023-08-08T11:31:31;99128.23;;;19.50;51.98
76337;BME280;65157;50.082;18.178;2023-08-08T11:33:58;99130.20;;;19.61;51.17
76337;BME280;65157;50.082;18.178;2023-08-08T11:36:35;99119.91;;;19.73;51.67
76337;BME280;65157;50.082;18.178;2023-08-08T11:39:02;99126.69;;;19.93;51.83
76337;BME280;65157;50.082;18.178;2023-08-08T11:41:29;99127.41;;;20.10;49.72
76337;BME280;65157;50.082;18.178;2023-08-08T11:43:55;99121.04;;;20.17;49.92
76337;BME280;65157;50.082;18.178;2023-08-08T11:46:24;99124.62;;;20.33;49.88
76337;BME280;65157;50.082;18.178;2023-08-08T11:48:51;99119.00;;;20.44;49.71
76337;BME280;65157;50.082;18.178;2023-08-08T11:51:17;99115.22;;;20.49;48.29
76337;BME280;65157;50.082;18.178;2023-08-08T11:53:52;99111.80;;;20.59;48.91
76337;BME280;65157;50.082;18.178;2023-08-08T11:56:19;99110.64;;;20.74;47.38
76337;BME280;65157;50.082;18.178;2023-08-08T11:58:47;99110.60;;;20.77;47.91
76337;BME280;65157;50.082;18.178;2023-08-08T12:01:13;99110.52;;;20.80;47.50
76337;BME280;65157;50.082;18.178;2023-08-08T12:03:39;99114.67;;;20.80;46.96
76337;BME280;65157;50.082;18.178;2023-08-08T12:06:15;99110.71;;;20.71;47.53
76337;BME280;65157;50.082;18.178;2023-08-08T12:08:43;99107.93;;;20.66;46.78
76337;BME280;65157;50.082;18.178;2023-08-08T12:11:10;99111.80;;;20.61;46.85
76337;BME280;65157;50.082;18.178;2023-08-08T12:13:38;99113.16;;;20.54;46.73
76337;BME280;65157;50.082;18.178;2023-08-08T12:16:05;99111.05;;;20.51;47.67
76337;BME280;65157;50.082;18.178;2023-08-08T12:18:32;99111.13;;;20.54;48.83
76337;BME280;65157;50.082;18.178;2023-08-08T12:21:00;99110.84;;;20.62;49.85
76337;BME280;65157;50.082;18.178;2023-08-08T12:23:26;99109.77;;;20.66;48.77
76337;BME280;65157;50.082;18.178;2023-08-08T12:25:53;99111.21;;;20.62;47.98
76337;BME280;65157;50.082;18.178;2023-08-08T12:28:19;99110.10;;;20.54;47.26
76337;BME280;65157;50.082;18.178;2023-08-08T12:30:45;99106.26;;;20.48;46.29
76337;BME280;65157;50.082;18.178;2023-08-08T12:33:11;99104.33;;;20.44;46.44
76337;BME280;65157;50.082;18.178;2023-08-08T12:35:37;99104.23;;;20.43;46.97
76337;BME280;65157;50.082;18.178;2023-08-08T12:38:04;99102.27;;;20.47;46.89
76337;BME280;65157;50.082;18.178;2023-08-08T12:40:31;99098.37;;;20.52;47.51
76337;BME280;65157;50.082;18.178;2023-08-08T12:42:57;99093.81;;;20.60;47.22
76337;BME280;65157;50.082;18.178;2023-08-08T12:45:23;99095.75;;;20.54;46.28
76337;BME280;65157;50.082;18.178;2023-08-08T12:47:49;99096.54;;;20.55;48.10
76337;BME280;65157;50.082;18.178;2023-08-08T12:50:15;99098.20;;;20.61;48.32
76337;BME280;65157;50.082;18.178;2023-08-08T12:52:41;99092.73;;;20.70;48.83